Time;durP1;ratioP1;P1;durP2;ratioP2;P2;SDS_P1;SDS_P2;PMS_P1;PMS_P2;Temp;Humidity;BMP_temperature;BMP_pressure;BME280_temperature;BME280_humidity;BME280_pressure;Samples;Min_cycle;Max_cycle;Signal;HPM_P1;HPM_P2
2023/05/11 00:01:16;;;;;;;3.43;2.13;;;9.00;99.90;;;;;;4987022;28;20053;-80
2023/05/11 00:03:42;;;;;;;2.53;1.70;;;8.90;99.90;;;;;;4985995;28;20021;-80
2023/05/11 00:06:07;;;;;;;2.07;1.50;;;8.90;99.90;;;;;;4987227;28;20076;-80
2023/05/11 00:08:33;;;;;;;3.50;1.80;;;8.90;99.90;;;;;;4986622;28;20094;-80
2023/05/11 00:11:01;;;;;;;2.97;1.50;;;8.90;99.90;;;;;;4988395;28;20091;-80
2023/05/11 00:13:28;;;;;;;2.27;1.70;;;8.90;99.90;;;;;;4988232;28;20097;-80
2023/05/11 00:15:53;;;;;;;2.20;1.70;;;8.90;99.90;;;;;;4980150;28;20030;-81
2023/05/11 00:18:19;;;;;;;3.30;1.70;;;8.90;99.90;;;;;;4977596;28;20616;-80
2023/05/11 00:20:45;;;;;;;5.97;1.60;;;8.90;99.90;;;;;;4976508;28;20833;-80
2023/05/11 00:23:10;;;;;;;3.00;1.70;;;8.90;99.90;;;;;;4979057;28;20064;-80
2023/05/11 00:25:38;;;;;;;2.70;1.80;;;8.90;99.90;;;;;;4978735;28;20417;-80
2023/05/11 00:28:03;;;;;;;3.53;1.80;;;8.90;99.90;;;;;;4979029;28;20048;-80
2023/05/11 00:30:29;;;;;;;3.47;1.90;;;8.90;99.90;;;;;;4979837;28;21037;-81
2023/05/11 00:32:54;;;;;;;3.27;1.70;;;8.90;99.90;;;;;;4979115;28;20846;-80
2023/05/11 00:35:20;;;;;;;3.03;1.60;;;8.90;99.90;;;;;;4977795;28;20041;-80
2023/05/11 00:37:46;;;;;;;2.17;1.60;;;8.80;99.90;;;;;;4977827;28;20994;-81
2023/05/11 00:40:11;;;;;;;5.40;1.80;;;8.90;99.90;;;;;;4979239;28;20398;-81
2023/05/11 00:42:37;;;;;;;2.93;2.00;;;8.90;99.90;;;;;;4978780;28;20141;-81
2023/05/11 00:45:03;;;;;;;5.57;1.70;;;8.90;99.90;;;;;;4977644;28;20038;-80
2023/05/11 00:47:29;;;;;;;2.30;1.80;;;8.80;99.90;;;;;;4977533;28;20037;-80
2023/05/11 00:49:54;;;;;;;2.80;1.80;;;8.80;99.90;;;;;;4976255;28;20026;-80
2023/05/11 00:52:20;;;;;;;3.10;1.50;;;8.80;99.90;;;;;;4977682;28;20041;-81
2023/05/11 00:54:46;;;;;;;3.60;1.80;;;8.80;99.90;;;;;;4979068;28;20034;-80
2023/05/11 00:57:13;;;;;;;4.50;1.70;;;8.80;99.90;;;;;;4978366;28;20073;-80
2023/05/11 00:59:38;;;;;;;4.30;1.87;;;8.80;99.90;;;;;;4979602;28;20147;-80
2023/05/11 01:02:04;;;;;;;2.83;1.77;;;8.80;99.90;;;;;;4981389;28;20042;-80
2023/05/11 01:04:31;;;;;;;2.73;1.70;;;8.80;99.90;;;;;;4979730;28;20059;-81
2023/05/11 01:07:06;;;;;;;3.60;1.97;;;8.80;99.90;;;;;;4982463;28;20038;-81
2023/05/11 01:09:34;;;;;;;3.70;1.70;;;8.80;99.90;;;;;;4981960;28;20030;-81
2023/05/11 01:14:45;;;;;;;3.03;1.77;;;8.80;99.90;;;;;;4973021;28;20061;-87
2023/05/11 01:17:22;;;;;;;2.97;1.30;;;8.80;99.90;;;;;;4979601;28;20262;-87
2023/05/11 01:19:56;;;;;;;3.60;1.80;;;8.80;99.90;;;;;;4980519;28;20040;-89
2023/05/11 01:22:34;;;;;;;2.63;1.60;;;8.80;99.90;;;;;;4985683;28;20100;-87
2023/05/11 01:25:27;;;;;;;3.50;1.80;;;8.80;99.90;;;;;;4987465;28;20409;-88
2023/05/11 01:28:19;;;;;;;4.07;1.90;;;8.80;99.90;;;;;;5033582;22;20042;-82
2023/05/11 01:30:55;;;;;;;4.20;1.90;;;8.80;99.90;;;;;;5034013;28;20117;-81
2023/05/11 01:33:29;;;;;;;2.93;1.53;;;8.80;99.90;;;;;;5031453;28;20036;-81
2023/05/11 01:36:02;;;;;;;3.97;1.73;;;8.80;99.90;;;;;;5030940;28;20034;-81
2023/05/11 01:38:34;;;;;;;3.13;1.90;;;8.80;99.90;;;;;;5030316;28;20036;-81
2023/05/11 01:41:05;;;;;;;3.00;1.77;;;8.70;99.90;;;;;;5029850;28;20041;-81
2023/05/11 01:43:34;;;;;;;6.43;2.00;;;8.80;99.90;;;;;;5025821;28;20045;-80
2023/05/11 01:46:01;;;;;;;2.17;1.63;;;8.70;99.90;;;;;;5020194;28;20041;-80
2023/05/11 01:48:32;;;;;;;2.57;1.70;;;8.70;99.90;;;;;;5024840;28;20111;-80
2023/05/11 01:51:01;;;;;;;2.97;1.80;;;8.70;99.90;;;;;;5025598;28;20034;-80
2023/05/11 01:53:30;;;;;;;2.67;1.70;;;8.70;99.90;;;;;;5026316;28;20403;-80
2023/05/11 01:55:57;;;;;;;3.83;1.77;;;8.70;99.90;;;;;;5026526;28;20029;-80
2023/05/11 01:58:24;;;;;;;3.27;1.83;;;8.70;99.90;;;;;;5027562;28;20048;-79
2023/05/11 02:00:51;;;;;;;1.90;1.60;;;8.70;99.90;;;;;;5029918;28;20032;-79
2023/05/11 02:03:19;;;;;;;2.77;1.43;;;8.70;99.90;;;;;;5030452;28;20038;-79
2023/05/11 02:05:47;;;;;;;2.03;1.30;;;8.70;99.90;;;;;;5026810;28;20753;-79
2023/05/11 02:08:14;;;;;;;5.83;1.63;;;8.70;99.90;;;;;;5030611;28;20038;-79
2023/05/11 02:10:41;;;;;;;1.43;1.20;;;8.70;99.90;;;;;;5030602;28;20030;-79
2023/05/11 02:13:08;;;;;;;1.93;1.40;;;8.70;99.90;;;;;;5027808;28;20056;-80
2023/05/11 02:15:38;;;;;;;2.73;1.60;;;8.70;99.90;;;;;;5025337;28;20816;-80
2023/05/11 02:18:07;;;;;;;2.53;1.53;;;8.70;99.90;;;;;;5025103;28;20599;-80
2023/05/11 02:20:33;;;;;;;3.07;1.90;;;8.70;99.90;;;;;;5024764;28;20116;-80
2023/05/11 02:23:00;;;;;;;3.70;1.37;;;8.70;99.90;;;;;;5025188;28;20517;-80
2023/05/11 02:25:27;;;;;;;3.83;1.50;;;8.70;99.90;;;;;;5026081;28;20032;-80
2023/05/11 02:27:52;;;;;;;2.87;1.40;;;8.70;99.90;;;;;;5024961;28;20033;-80
2023/05/11 02:30:18;;;;;;;2.67;1.43;;;8.70;99.90;;;;;;5026443;28;20037;-80
2023/05/11 02:32:49;;;;;;;2.07;1.20;;;8.70;99.90;;;;;;5025804;28;20036;-80
2023/05/11 02:35:19;;;;;;;2.80;1.30;;;8.70;99.90;;;;;;5027604;28;20048;-80
2023/05/11 02:37:46;;;;;;;1.97;1.20;;;8.70;99.90;;;;;;5026722;28;20017;-80
2023/05/11 02:40:18;;;;;;;3.23;1.37;;;8.60;99.90;;;;;;5025855;28;20040;-80
2023/05/11 02:42:47;;;;;;;2.03;1.30;;;8.60;99.90;;;;;;5028223;28;20052;-81
2023/05/11 02:45:15;;;;;;;3.00;1.60;;;8.70;99.90;;;;;;5029254;28;20185;-81
2023/05/11 02:47:52;;;;;;;1.77;1.30;;;8.60;99.90;;;;;;5028656;28;20104;-81
2023/05/11 02:50:20;;;;;;;2.87;1.30;;;8.60;99.90;;;;;;5029017;28;20025;-81
2023/05/11 02:52:48;;;;;;;3.40;1.30;;;8.60;99.90;;;;;;5027952;28;20174;-81
2023/05/11 02:55:16;;;;;;;3.97;1.60;;;8.60;99.90;;;;;;5023052;28;21408;-81
2023/05/11 02:57:42;;;;;;;1.93;1.20;;;8.60;99.90;;;;;;5026383;28;20030;-80
2023/05/11 03:00:11;;;;;;;1.73;1.20;;;8.60;99.90;;;;;;5024222;28;20136;-80
2023/05/11 03:02:37;;;;;;;5.50;1.83;;;8.60;99.90;;;;;;5023263;28;21465;-80
2023/05/11 03:05:03;;;;;;;3.40;1.20;;;8.60;99.90;;;;;;5024188;28;20025;-80
2023/05/11 03:07:30;;;;;;;1.83;1.30;;;8.60;99.90;;;;;;5024376;28;20040;-80
2023/05/11 03:09:56;;;;;;;2.17;1.33;;;8.60;99.90;;;;;;5023971;28;20211;-80
2023/05/11 03:12:22;;;;;;;3.07;1.20;;;8.60;99.90;;;;;;5023660;28;20052;-80
2023/05/11 03:14:48;;;;;;;2.13;1.40;;;8.60;99.90;;;;;;5024348;28;20059;-80
2023/05/11 03:17:14;;;;;;;2.53;1.37;;;8.60;99.90;;;;;;5023300;28;20087;-79
2023/05/11 03:19:41;;;;;;;2.60;1.10;;;8.60;99.90;;;;;;5022037;28;20037;-80
2023/05/11 03:22:07;;;;;;;2.00;1.40;;;8.60;99.90;;;;;;5023091;28;20120;-80
2023/05/11 03:24:33;;;;;;;3.10;1.30;;;8.60;99.90;;;;;;5025110;28;20030;-80
2023/05/11 03:27:00;;;;;;;1.60;1.23;;;8.60;99.90;;;;;;5024770;28;20112;-79
2023/05/11 03:29:27;;;;;;;3.73;1.20;;;8.60;99.90;;;;;;5025603;28;20242;-80
2023/05/11 03:31:54;;;;;;;2.07;1.40;;;8.60;99.90;;;;;;5025401;28;20102;-80
2023/05/11 03:34:19;;;;;;;4.87;1.50;;;8.50;99.90;;;;;;5026049;28;20018;-80
2023/05/11 03:36:48;;;;;;;1.77;1.17;;;8.50;99.90;;;;;;5023261;28;20045;-80
2023/05/11 03:39:15;;;;;;;1.90;1.30;;;8.50;99.90;;;;;;5025358;28;20041;-80
2023/05/11 03:41:41;;;;;;;3.80;1.60;;;8.50;99.90;;;;;;5025212;28;20049;-80
2023/05/11 03:44:09;;;;;;;4.73;1.73;;;8.50;99.90;;;;;;5026533;28;20064;-80
2023/05/11 03:46:36;;;;;;;2.90;1.20;;;8.50;99.90;;;;;;5024920;28;20057;-80
2023/05/11 03:49:03;;;;;;;1.37;1.20;;;8.50;99.90;;;;;;5025106;28;20029;-80
2023/05/11 03:51:30;;;;;;;1.63;1.30;;;8.50;99.90;;;;;;5019775;28;20040;-80
2023/05/11 03:53:56;;;;;;;2.40;1.17;;;8.50;99.90;;;;;;5024650;28;20025;-80
2023/05/11 03:56:22;;;;;;;1.43;1.07;;;8.40;99.90;;;;;;5024080;28;20034;-80
2023/05/11 03:58:48;;;;;;;1.80;1.10;;;8.40;99.90;;;;;;5025300;28;20021;-79
2023/05/11 04:01:14;;;;;;;1.87;0.97;;;8.40;99.90;;;;;;5025595;28;20476;-81
2023/05/11 04:03:48;;;;;;;1.67;1.27;;;8.40;99.90;;;;;;5025184;28;20064;-79
2023/05/11 04:06:15;;;;;;;4.17;1.00;;;8.40;99.90;;;;;;5022838;28;20121;-79
2023/05/11 04:08:41;;;;;;;1.73;1.00;;;8.40;99.90;;;;;;5026864;28;20056;-78
2023/05/11 04:11:06;;;;;;;1.47;1.10;;;8.40;99.90;;;;;;5024550;28;20396;-79
2023/05/11 04:13:32;;;;;;;2.53;1.20;;;8.40;99.90;;;;;;5024421;28;20310;-78
2023/05/11 04:15:57;;;;;;;1.37;1.10;;;8.40;99.90;;;;;;5024863;28;20554;-78
2023/05/11 04:18:23;;;;;;;4.23;1.20;;;8.40;99.90;;;;;;5024111;28;20026;-78
2023/05/11 04:20:48;;;;;;;1.83;0.87;;;8.40;99.90;;;;;;5024974;28;20066;-79
2023/05/11 04:23:15;;;;;;;2.90;1.10;;;8.40;99.90;;;;;;5025651;28;20083;-79
2023/05/11 04:25:40;;;;;;;1.87;1.07;;;8.40;99.90;;;;;;5026302;28;20417;-80
2023/05/11 04:28:06;;;;;;;2.73;1.00;;;8.40;99.90;;;;;;5026677;28;20132;-79
2023/05/11 04:30:31;;;;;;;2.20;1.33;;;8.40;99.90;;;;;;5026228;28;20029;-80
2023/05/11 04:32:57;;;;;;;1.60;0.90;;;8.40;99.90;;;;;;5021285;28;20029;-80
2023/05/11 04:35:23;;;;;;;1.63;1.00;;;8.40;99.90;;;;;;5024769;28;20025;-79
2023/05/11 04:37:49;;;;;;;1.73;1.00;;;8.30;99.90;;;;;;5026207;28;20060;-80
2023/05/11 04:40:15;;;;;;;1.27;1.07;;;8.40;99.90;;;;;;5026505;28;20037;-79
2023/05/11 04:42:40;;;;;;;1.17;0.93;;;8.40;99.90;;;;;;5025777;28;20528;-79
2023/05/11 04:45:06;;;;;;;1.90;0.90;;;8.40;99.90;;;;;;5027594;28;20034;-79
2023/05/11 04:47:32;;;;;;;0.87;0.80;;;8.40;99.90;;;;;;5025407;28;20220;-80
2023/05/11 04:49:57;;;;;;;1.57;0.90;;;8.40;99.90;;;;;;5024041;28;20116;-79
2023/05/11 04:52:23;;;;;;;1.10;1.00;;;8.40;99.90;;;;;;5018552;28;20057;-81
2023/05/11 04:54:48;;;;;;;0.80;0.80;;;8.40;99.90;;;;;;5019076;28;20112;-80
2023/05/11 04:57:14;;;;;;;2.60;0.97;;;8.40;99.90;;;;;;5016491;28;20044;-80
2023/05/11 04:59:39;;;;;;;1.60;0.90;;;8.40;99.90;;;;;;5016374;28;20025;-79
2023/05/11 05:02:05;;;;;;;1.00;0.80;;;8.40;99.90;;;;;;5016594;28;20043;-80
2023/05/11 05:04:31;;;;;;;1.60;1.00;;;8.40;99.90;;;;;;5024592;28;20021;-79
2023/05/11 05:06:57;;;;;;;1.40;1.00;;;8.40;99.90;;;;;;5024640;28;20152;-79
2023/05/11 05:09:22;;;;;;;2.80;0.90;;;8.40;99.90;;;;;;5025167;28;21361;-79
2023/05/11 05:11:48;;;;;;;1.20;1.10;;;8.40;99.90;;;;;;5023346;28;20029;-80
2023/05/11 05:14:13;;;;;;;1.10;0.80;;;8.40;99.90;;;;;;5025212;28;20037;-80
2023/05/11 05:16:39;;;;;;;1.50;0.80;;;8.40;99.90;;;;;;5023228;28;20103;-80
2023/05/11 05:19:04;;;;;;;1.70;0.90;;;8.40;99.90;;;;;;5023798;28;20616;-80
2023/05/11 05:21:31;;;;;;;1.73;1.00;;;8.40;99.90;;;;;;5024769;28;20421;-80
2023/05/11 05:23:56;;;;;;;4.60;1.30;;;8.40;99.90;;;;;;5026181;28;20043;-80
2023/05/11 05:26:22;;;;;;;4.00;1.50;;;8.40;99.90;;;;;;5027421;28;20033;-80
2023/05/11 05:28:48;;;;;;;6.37;2.00;;;8.40;99.90;;;;;;5026179;28;20033;-80
2023/05/11 05:31:13;;;;;;;8.67;3.27;;;8.40;99.90;;;;;;5025085;28;20073;-81
2023/05/11 05:33:39;;;;;;;9.57;2.70;;;8.40;99.90;;;;;;5030429;28;20461;-80
2023/05/11 05:36:04;;;;;;;8.77;3.13;;;8.40;99.90;;;;;;5025216;28;20037;-80
2023/05/11 05:38:30;;;;;;;11.33;3.20;;;8.50;99.90;;;;;;5027038;28;20049;-80
2023/05/11 05:40:55;;;;;;;7.53;3.07;;;8.50;99.90;;;;;;5026071;28;20037;-80
2023/05/11 05:43:21;;;;;;;8.23;2.83;;;8.50;99.90;;;;;;5024700;28;20453;-80
2023/05/11 05:45:47;;;;;;;8.77;3.13;;;8.50;99.90;;;;;;5024671;28;20033;-80
2023/05/11 05:48:13;;;;;;;8.10;2.70;;;8.60;99.90;;;;;;5026643;28;20110;-80
2023/05/11 05:50:38;;;;;;;4.33;2.00;;;8.60;99.90;;;;;;5025341;28;20480;-80
2023/05/11 05:53:04;;;;;;;3.83;1.87;;;8.60;99.90;;;;;;5024836;28;20135;-80
2023/05/11 05:55:29;;;;;;;1.63;1.30;;;8.60;99.90;;;;;;5025396;28;20071;-80
2023/05/11 05:57:55;;;;;;;2.00;1.30;;;8.60;99.90;;;;;;5024345;28;20052;-80
2023/05/11 06:00:21;;;;;;;2.67;1.30;;;8.70;99.90;;;;;;5025589;28;20040;-80
2023/05/11 06:02:46;;;;;;;3.43;1.10;;;8.70;99.90;;;;;;5025479;28;20112;-80
2023/05/11 06:05:12;;;;;;;2.30;0.90;;;8.70;99.90;;;;;;5025581;28;20037;-80
2023/05/11 06:07:37;;;;;;;2.97;0.93;;;8.80;99.90;;;;;;5026993;28;20062;-80
2023/05/11 06:10:03;;;;;;;1.83;0.90;;;8.80;99.90;;;;;;5023533;28;20029;-80
2023/05/11 06:12:29;;;;;;;1.30;0.90;;;8.90;99.90;;;;;;5026129;28;20152;-80
2023/05/11 06:14:55;;;;;;;2.87;1.03;;;8.80;99.90;;;;;;5025985;28;20076;-80
2023/05/11 06:17:21;;;;;;;1.73;1.00;;;8.80;99.90;;;;;;5027113;28;20049;-80
2023/05/11 06:19:47;;;;;;;1.53;0.90;;;8.80;99.90;;;;;;5024068;28;20068;-80
2023/05/11 06:22:13;;;;;;;1.77;0.90;;;8.80;99.90;;;;;;5026894;28;20069;-80
2023/05/11 06:24:38;;;;;;;1.60;0.90;;;8.80;99.90;;;;;;5026901;28;21423;-80
2023/05/11 06:27:04;;;;;;;2.10;1.20;;;8.90;99.90;;;;;;5027707;28;20120;-80
2023/05/11 06:29:29;;;;;;;1.13;0.77;;;8.90;99.90;;;;;;5025134;28;20301;-80
2023/05/11 06:31:55;;;;;;;1.47;0.97;;;8.90;99.90;;;;;;5026264;28;20037;-80
2023/05/11 06:34:21;;;;;;;2.47;1.40;;;8.90;99.90;;;;;;5026774;28;20480;-80
2023/05/11 06:36:50;;;;;;;3.80;1.40;;;8.90;99.90;;;;;;5025901;28;20046;-80
2023/05/11 06:39:16;;;;;;;2.33;1.33;;;8.90;99.90;;;;;;5027127;28;20029;-80
2023/05/11 06:41:41;;;;;;;2.33;1.10;;;8.90;99.90;;;;;;5026638;28;20053;-80
2023/05/11 06:44:07;;;;;;;1.70;1.20;;;8.90;99.90;;;;;;5026758;28;20037;-80
2023/05/11 06:46:32;;;;;;;1.90;1.30;;;8.90;99.90;;;;;;5028744;28;20021;-80
2023/05/11 06:48:59;;;;;;;2.23;1.20;;;8.90;99.90;;;;;;5026723;28;21371;-80
2023/05/11 06:51:24;;;;;;;1.03;0.90;;;8.90;99.90;;;;;;5027497;28;20619;-80
2023/05/11 06:53:50;;;;;;;2.90;1.37;;;8.90;99.90;;;;;;5025711;28;20029;-80
2023/05/11 06:56:15;;;;;;;2.47;1.20;;;8.90;99.90;;;;;;5022406;28;20033;-80
2023/05/11 06:58:41;;;;;;;1.90;1.20;;;9.00;99.90;;;;;;5021132;28;20029;-80
2023/05/11 07:01:07;;;;;;;2.90;1.77;;;9.00;99.90;;;;;;5021890;28;20103;-80
2023/05/11 07:03:35;;;;;;;2.10;1.27;;;9.00;99.90;;;;;;5021036;28;20025;-80
2023/05/11 07:06:01;;;;;;;1.40;1.17;;;9.00;99.90;;;;;;5021736;28;20029;-80
2023/05/11 07:08:27;;;;;;;2.20;1.67;;;9.00;99.90;;;;;;5022365;28;20060;-80
2023/05/11 07:10:52;;;;;;;2.07;1.07;;;9.10;99.90;;;;;;5024250;28;20059;-80
2023/05/11 07:13:18;;;;;;;1.73;1.30;;;9.20;99.90;;;;;;5024102;28;21637;-80
2023/05/11 07:15:43;;;;;;;1.43;1.10;;;9.20;99.90;;;;;;5022643;28;20033;-80
2023/05/11 07:18:09;;;;;;;2.10;1.40;;;9.20;99.90;;;;;;5021995;28;20036;-80
2023/05/11 07:20:39;;;;;;;2.30;1.20;;;9.20;99.90;;;;;;5023541;28;20029;-80
2023/05/11 07:23:05;;;;;;;1.90;1.10;;;9.20;99.90;;;;;;5022812;28;20044;-80
2023/05/11 07:25:30;;;;;;;1.40;1.00;;;9.30;99.90;;;;;;5022636;28;20029;-80
2023/05/11 07:30:24;;;;;;;1.47;1.10;;;9.30;99.90;;;;;;5016688;28;20057;-76
2023/05/11 07:32:49;;;;;;;2.60;1.10;;;9.30;99.90;;;;;;5022355;28;20102;-76
2023/05/11 07:35:15;;;;;;;1.43;1.00;;;9.30;99.90;;;;;;5023368;28;20029;-76
2023/05/11 07:37:41;;;;;;;2.37;0.90;;;9.30;99.90;;;;;;5022424;28;20104;-76
2023/05/11 07:40:07;;;;;;;1.83;1.00;;;9.40;99.90;;;;;;5021760;28;20413;-76
2023/05/11 07:42:33;;;;;;;2.23;1.20;;;9.40;99.90;;;;;;5025125;28;20120;-76
2023/05/11 07:44:58;;;;;;;2.00;1.23;;;9.40;99.90;;;;;;5026915;28;20037;-76
2023/05/11 07:47:24;;;;;;;1.70;1.10;;;9.30;99.90;;;;;;5025963;28;20079;-76
2023/05/11 07:49:50;;;;;;;1.40;1.00;;;9.40;99.90;;;;;;5027340;28;20155;-76
2023/05/11 07:52:16;;;;;;;1.83;1.00;;;9.30;99.90;;;;;;5027021;28;20081;-76
2023/05/11 07:54:41;;;;;;;1.50;1.10;;;9.40;99.90;;;;;;5026241;28;20161;-76
2023/05/11 07:57:07;;;;;;;3.43;1.17;;;9.40;99.90;;;;;;5026811;28;20507;-76
2023/05/11 07:59:32;;;;;;;1.70;1.10;;;9.40;99.90;;;;;;5027099;28;20025;-76
2023/05/11 08:01:58;;;;;;;2.20;1.23;;;9.40;99.90;;;;;;5025238;28;20120;-76
2023/05/11 08:04:26;;;;;;;1.40;1.03;;;9.40;99.90;;;;;;5025272;28;20133;-76
2023/05/11 08:06:52;;;;;;;2.03;1.20;;;9.40;99.90;;;;;;5025439;28;20041;-76
2023/05/11 08:09:17;;;;;;;1.83;1.10;;;9.40;99.90;;;;;;5023621;28;20087;-76
2023/05/11 08:11:43;;;;;;;3.23;1.47;;;9.40;99.90;;;;;;5025077;28;20029;-76
2023/05/11 08:14:09;;;;;;;1.90;1.20;;;9.50;99.90;;;;;;5026031;28;20033;-76
2023/05/11 08:16:36;;;;;;;2.83;1.30;;;9.50;99.90;;;;;;5026431;28;20032;-77
2023/05/11 08:19:01;;;;;;;2.27;1.47;;;9.50;99.90;;;;;;5025918;28;20103;-76
2023/05/11 08:21:27;;;;;;;2.40;1.50;;;9.50;99.90;;;;;;5025076;28;20140;-78
2023/05/11 08:23:52;;;;;;;2.77;1.40;;;9.60;99.90;;;;;;5025965;28;20129;-75
2023/05/11 08:26:18;;;;;;;2.00;1.13;;;9.60;99.90;;;;;;5026521;28;20175;-75
2023/05/11 08:28:44;;;;;;;1.13;0.90;;;9.60;99.90;;;;;;5026878;28;20481;-75
2023/05/11 08:31:10;;;;;;;4.50;1.10;;;9.70;99.90;;;;;;5026136;28;20037;-75
2023/05/11 08:33:36;;;;;;;1.70;1.03;;;9.80;99.90;;;;;;5026116;28;20063;-75
2023/05/11 08:36:02;;;;;;;2.13;1.20;;;9.70;99.90;;;;;;5026225;28;20033;-75
2023/05/11 08:38:28;;;;;;;1.80;1.17;;;9.70;99.90;;;;;;5026551;28;20037;-76
2023/05/11 08:40:53;;;;;;;3.97;1.40;;;9.70;99.90;;;;;;5026313;28;20037;-76
2023/05/11 08:43:20;;;;;;;4.03;1.50;;;9.70;99.90;;;;;;5024499;28;20051;-76
2023/05/11 08:45:47;;;;;;;2.17;1.37;;;9.70;99.90;;;;;;5025637;28;20033;-76
2023/05/11 08:48:16;;;;;;;3.17;1.43;;;9.80;99.90;;;;;;5026559;28;20120;-76
2023/05/11 08:50:46;;;;;;;4.43;1.90;;;9.80;99.90;;;;;;5026048;28;20064;-77
2023/05/11 08:53:12;;;;;;;3.17;1.73;;;9.80;99.90;;;;;;5024334;28;20037;-76
2023/05/11 08:55:39;;;;;;;3.10;1.60;;;9.80;99.90;;;;;;5025786;28;21366;-76
2023/05/11 08:58:06;;;;;;;4.70;1.80;;;9.80;99.90;;;;;;5026379;28;20152;-75
2023/05/11 09:00:35;;;;;;;2.07;1.30;;;9.90;99.90;;;;;;5025493;28;20472;-75
2023/05/11 09:03:02;;;;;;;2.17;1.13;;;10.00;99.90;;;;;;5025038;28;20053;-75
2023/05/11 09:05:30;;;;;;;1.17;0.90;;;10.10;99.90;;;;;;5025519;28;20053;-75
2023/05/11 09:08:00;;;;;;;2.60;1.00;;;10.20;99.90;;;;;;5024725;28;20152;-75
2023/05/11 09:10:26;;;;;;;3.00;0.90;;;10.30;99.90;;;;;;5024439;28;20033;-75
2023/05/11 09:12:52;;;;;;;1.57;0.90;;;10.30;99.90;;;;;;5023439;28;20033;-76
2023/05/11 09:15:17;;;;;;;1.70;0.80;;;10.40;99.90;;;;;;5022710;28;20385;-75
2023/05/11 09:17:43;;;;;;;1.27;0.80;;;10.30;99.90;;;;;;5023018;28;20039;-76
2023/05/11 09:20:09;;;;;;;4.07;1.00;;;10.40;99.90;;;;;;5024195;28;20056;-75
2023/05/11 09:22:44;;;;;;;1.23;0.93;;;10.40;99.90;;;;;;5023410;28;20049;-75
2023/05/11 09:25:12;;;;;;;1.52;0.80;;;10.40;99.90;;;;;;5018726;28;20169;-75
2023/05/11 09:27:41;;;;;;;1.20;0.90;;;10.40;99.90;;;;;;5017733;28;20087;-75
2023/05/11 09:30:18;;;;;;;1.63;0.90;;;10.30;99.90;;;;;;5015572;28;20083;-76
2023/05/11 09:32:51;;;;;;;3.00;1.20;;;10.30;99.90;;;;;;5015692;28;20037;-75
2023/05/11 09:35:33;;;;;;;2.00;1.00;;;10.40;99.90;;;;;;5014795;28;20555;-75
2023/05/11 09:38:05;;;;;;;1.83;0.80;;;10.30;99.90;;;;;;5018519;28;20033;-75
2023/05/11 09:40:32;;;;;;;1.83;1.10;;;10.30;99.90;;;;;;5017799;28;20497;-76
2023/05/11 09:42:59;;;;;;;2.07;1.00;;;10.30;99.90;;;;;;5015739;28;20056;-75
2023/05/11 09:45:41;;;;;;;2.27;1.27;;;10.30;99.90;;;;;;5015200;28;20036;-75
2023/05/11 09:48:15;;;;;;;3.43;1.10;;;10.30;99.90;;;;;;5018773;28;21298;-75
2023/05/11 09:50:41;;;;;;;1.23;1.00;;;10.40;99.90;;;;;;5023363;28;20466;-75
2023/05/11 09:53:07;;;;;;;1.87;0.83;;;10.40;99.90;;;;;;5023471;28;20148;-75
2023/05/11 09:55:32;;;;;;;2.83;0.93;;;10.40;99.90;;;;;;5023526;28;20129;-75
2023/05/11 09:57:58;;;;;;;3.60;0.90;;;10.40;99.90;;;;;;5022996;28;20120;-76
2023/05/11 10:00:25;;;;;;;1.15;1.05;;;10.50;99.90;;;;;;5022442;28;20083;-75
2023/05/11 10:03:01;;;;;;;2.50;1.10;;;10.50;99.90;;;;;;5022626;28;20171;-76
2023/05/11 10:05:30;;;;;;;3.72;1.40;;;10.60;99.90;;;;;;5023160;28;20285;-75
2023/05/11 10:08:00;;;;;;;1.30;0.90;;;10.50;99.90;;;;;;5023489;28;20397;-76
2023/05/11 10:10:28;;;;;;;2.77;2.17;;;10.60;99.90;;;;;;5023058;28;20494;-75
2023/05/11 10:12:55;;;;;;;2.97;1.85;;;10.50;99.90;;;;;;5022807;28;20083;-75
2023/05/11 10:15:26;;;;;;;1.33;0.90;;;10.50;99.90;;;;;;5023097;28;20531;-75
2023/05/11 10:17:59;;;;;;;1.52;1.10;;;10.60;99.90;;;;;;5023850;28;20084;-75
2023/05/11 10:20:25;;;;;;;1.45;0.75;;;10.60;99.90;;;;;;5023739;28;20095;-75
2023/05/11 10:22:54;;;;;;;2.10;0.60;;;10.70;99.90;;;;;;5022980;28;20037;-75
2023/05/11 10:25:25;;;;;;;4.23;0.70;;;10.60;99.90;;;;;;5024132;28;20478;-75
2023/05/11 10:27:51;;;;;;;1.10;0.80;;;10.50;99.90;;;;;;5023493;28;20125;-75
2023/05/11 10:30:17;;;;;;;5.57;3.70;;;10.60;99.90;;;;;;5023130;28;20033;-76
2023/05/11 10:32:45;;;;;;;1.00;0.80;;;10.50;99.90;;;;;;5022500;28;20451;-73
2023/05/11 10:35:11;;;;;;;1.90;0.93;;;10.40;99.90;;;;;;5023547;28;20037;-74
2023/05/11 10:37:37;;;;;;;19.53;12.27;;;10.40;99.90;;;;;;5023879;28;20036;-69
2023/05/11 10:40:03;;;;;;;1.27;0.90;;;10.40;99.90;;;;;;5023786;28;20125;-74
2023/05/11 10:42:52;;;;;;;1.10;1.00;;;10.30;99.90;;;;;;5022400;28;20615;-74
2023/05/11 10:45:45;;;;;;;0.73;0.73;;;10.40;99.90;;;;;;5022915;28;20034;-74
2023/05/11 10:48:34;;;;;;;1.40;0.90;;;10.40;99.90;;;;;;5022980;28;20063;-79
2023/05/11 10:51:55;;;;;;;1.30;1.10;;;10.40;99.90;;;;;;5034173;28;20060;-77
2023/05/11 10:54:47;;;;;;;1.60;0.90;;;10.40;99.90;;;;;;4934896;29;20064;-76
2023/05/11 10:57:21;;;;;;;2.53;1.50;;;10.40;99.90;;;;;;5021206;28;20050;-75
2023/05/11 11:00:29;;;;;;;2.95;1.75;;;10.50;99.90;;;;;;5035760;28;20029;-75
2023/05/11 11:03:07;;;;;;;1.70;0.97;;;10.50;99.90;;;;;;5028667;28;20037;-76
2023/05/11 11:05:33;;;;;;;2.35;0.90;;;10.60;99.90;;;;;;5024302;28;20513;-80
2023/05/11 11:08:06;;;;;;;1.53;1.20;;;10.60;99.90;;;;;;5027022;28;20068;-81
2023/05/11 11:10:33;;;;;;;0.73;0.63;;;10.70;99.90;;;;;;5025850;28;20437;-81
2023/05/11 11:13:06;;;;;;;1.10;0.70;;;10.70;99.90;;;;;;5025941;28;20034;-81
2023/05/11 11:16:04;;;;;;;2.80;0.63;;;10.70;99.90;;;;;;5026809;28;20045;-81
2023/05/11 11:18:34;;;;;;;1.17;0.80;;;10.70;99.90;;;;;;4984111;28;20040;-81
2023/05/11 11:21:00;;;;;;;0.83;0.63;;;10.60;99.90;;;;;;5026080;28;20065;-82
2023/05/11 11:23:49;;;;;;;1.03;0.67;;;10.60;99.90;;;;;;5025402;28;20123;-81
2023/05/11 11:26:36;;;;;;;0.98;0.70;;;10.70;99.90;;;;;;5026204;28;20045;-81
2023/05/11 11:29:11;;;;;;;2.03;0.80;;;10.60;99.90;;;;;;5026263;28;20898;-82
2023/05/11 11:31:38;;;;;;;0.80;0.77;;;10.60;99.90;;;;;;5025740;28;20100;-83
2023/05/11 11:34:26;;;;;;;0.75;0.75;;;10.70;99.90;;;;;;5025474;28;20048;-81
2023/05/11 11:36:54;;;;;;;0.65;0.65;;;10.70;99.90;;;;;;5026433;28;20103;-81
2023/05/11 11:39:48;;;;;;;0.65;0.60;;;10.70;99.90;;;;;;5026913;28;20033;-81
2023/05/11 11:42:15;;;;;;;2.15;0.70;;;10.80;99.90;;;;;;5023293;28;20053;-81
2023/05/11 11:44:42;;;;;;;0.68;0.68;;;10.80;99.90;;;;;;5025204;28;20071;-81
2023/05/11 11:47:19;;;;;;;1.02;0.60;;;10.80;99.90;;;;;;5026749;28;20033;-82
2023/05/11 11:49:47;;;;;;;1.38;0.75;;;10.80;99.90;;;;;;5026899;28;20041;-82
2023/05/11 11:52:31;;;;;;;0.93;0.70;;;10.80;99.90;;;;;;5025402;28;20027;-82
2023/05/11 11:55:01;;;;;;;2.22;0.60;;;10.80;99.90;;;;;;5026176;28;20037;-82
2023/05/11 11:57:36;;;;;;;1.02;0.70;;;10.80;99.90;;;;;;5026152;28;20029;-81
2023/05/11 12:00:08;;;;;;;2.05;0.75;;;10.80;99.90;;;;;;5027360;28;20187;-82
2023/05/11 12:02:38;;;;;;;2.10;0.98;;;10.80;99.90;;;;;;5025422;28;20053;-81
2023/05/11 12:05:21;;;;;;;1.70;0.73;;;10.80;99.90;;;;;;5026629;28;20022;-81
2023/05/11 12:07:51;;;;;;;1.25;0.70;;;10.80;99.90;;;;;;5026329;28;21427;-81
2023/05/11 12:10:18;;;;;;;4.07;0.70;;;10.80;99.90;;;;;;5026948;28;20029;-81
2023/05/11 12:12:48;;;;;;;1.52;0.70;;;10.80;99.90;;;;;;5025828;28;20029;-83
2023/05/11 12:15:25;;;;;;;2.60;1.02;;;10.80;99.90;;;;;;5026725;28;20060;-81
2023/05/11 12:17:51;;;;;;;2.20;1.00;;;10.90;99.90;;;;;;5026384;28;20045;-81
2023/05/11 12:20:18;;;;;;;2.13;1.00;;;10.90;99.90;;;;;;5025954;28;20057;-82
2023/05/11 12:22:45;;;;;;;1.73;0.88;;;10.90;99.90;;;;;;5025203;28;20041;-82
2023/05/11 12:25:13;;;;;;;1.13;1.02;;;10.90;99.90;;;;;;5025478;28;20060;-82
2023/05/11 12:28:00;;;;;;;1.45;1.00;;;10.90;99.90;;;;;;5027983;28;20040;-81
2023/05/11 12:30:28;;;;;;;1.55;1.13;;;10.90;99.90;;;;;;5029431;28;20057;-82
2023/05/11 12:32:54;;;;;;;1.17;0.90;;;10.90;99.90;;;;;;5028925;28;20034;-81
2023/05/11 12:35:29;;;;;;;1.65;1.00;;;10.90;99.90;;;;;;5029474;28;20022;-81
2023/05/11 12:37:56;;;;;;;0.98;0.82;;;11.00;99.90;;;;;;5028899;28;20033;-82
2023/05/11 12:40:22;;;;;;;2.92;1.20;;;11.00;99.90;;;;;;5029585;28;20033;-82
2023/05/11 12:42:58;;;;;;;2.38;0.80;;;11.10;99.90;;;;;;5029480;28;21451;-82
2023/05/11 12:45:25;;;;;;;1.60;1.08;;;11.20;99.90;;;;;;5030568;28;20763;-81
2023/05/11 12:47:53;;;;;;;1.42;0.88;;;11.20;99.90;;;;;;5031175;28;20117;-81
2023/05/11 12:50:19;;;;;;;1.05;0.80;;;11.30;99.90;;;;;;5030967;28;21539;-81
2023/05/11 12:52:46;;;;;;;1.33;0.80;;;11.30;99.90;;;;;;5030876;28;20065;-81
2023/05/11 12:55:12;;;;;;;1.63;1.05;;;11.20;99.90;;;;;;5030432;28;20021;-81
2023/05/11 12:57:39;;;;;;;3.35;1.08;;;11.30;99.90;;;;;;5030992;28;20778;-80
2023/05/11 13:00:12;;;;;;;1.88;0.90;;;11.30;99.90;;;;;;5029910;28;20021;-81
2023/05/11 13:03:04;;;;;;;2.78;0.85;;;11.30;99.90;;;;;;5030471;28;20501;-81
2023/05/11 13:05:30;;;;;;;1.63;1.10;;;11.30;99.90;;;;;;5024592;28;20083;-80